Pagrindinis puslapis
METAR-TAF:

METAR-TAF

Oro uostai :

San Žozė do Rio Pretas, San Paulas, Brazilija

platuma: 20-48-58S, ilguma: 049-24-17W, Aukštis: 543 m

Dabartinis oras

Ataskaita buvo paskelbta 1 valandą ir 8 minutes, ne 20:00 UTC
Vėjas 4 kt iš Šiaurės/Šiaurės Rytų
Temperatūra 26°C
Drėgmė 74%
Slėgis 1010 hPa
Matomumas 10 km arba daugiau
Išsisklaidę debesys ne aukštis 3000 ft
Mažai debesys ne aukštis 4000 ft, aukštai iškilę kamuoliniai debesys.
Su prošvaistėmis ne aukštis 7000 ft

METAR: SBSR 122000Z 03004KT 9999 SCT030 FEW040TCU BKN070 26/21 Q1010

Laikas: 18:08 (21:08 UTC)


TAF: trūkstamas

Orai ataskaitas ir orų prognozės (METAR, TAF).

turimą stotys yra geltonos ir raudonos taškus žemėlapyje.

Perkelti pele per norėdami pamatyti stoties vardą.

Tada spustelėkite, norėdami matyti oro stebėjimo ir prognozės.

Norėdami pakeisti žemėlapį: spustelėkite ant žalios mygtukų su juodo kryžiaus žemyn,; žalią mygtuką su brūkšneliu, jei norite nutolinti; arba žalių rodyklių gretimoms žemėlapius.


METAR-TAF: